Time;durP1;ratioP1;P1;durP2;ratioP2;P2;SDS_P1;SDS_P2;PMS_P1;PMS_P2;Temp;Humidity;BMP_temperature;BMP_pressure;BME280_temperature;BME280_humidity;BME280_pressure;Samples;Min_cycle;Max_cycle;Signal;HPM_P1;HPM_P2
2021/05/28 00:01:15;;;;;;;;;;;;;;;26.98;34.30;100461.47;5059440;28;820;-28
2021/05/28 00:03:40;;;;;;;;;;;;;;;26.98;34.67;100455.22;5059797;28;956;-27
2021/05/28 00:06:06;;;;;;;;;;;;;;;26.92;34.35;100458.69;5059462;28;799;-27
2021/05/28 00:08:31;;;;;;;;;;;;;;;26.89;34.13;100451.81;5059606;28;819;-28
2021/05/28 00:10:56;;;;;;;;;;;;;;;26.93;34.14;100444.16;5059783;28;812;-28
2021/05/28 00:13:22;;;;;;;;;;;;;;;26.94;34.02;100443.16;5059181;28;1897;-28
2021/05/28 00:15:47;;;;;;;;;;;;;;;26.94;34.31;100433.19;5059577;28;791;-27
2021/05/28 00:18:12;;;;;;;;;;;;;;;26.93;34.06;100430.66;5059080;28;967;-28
2021/05/28 00:20:38;;;;;;;;;;;;;;;26.92;34.02;100431.69;5059015;28;808;-26
2021/05/28 00:23:03;;;;;;;;;;;;;;;26.92;34.30;100434.41;5059412;28;755;-28
2021/05/28 00:25:29;;;;;;;;;;;;;;;26.97;34.43;100437.38;5059464;28;820;-28
2021/05/28 00:27:54;;;;;;;;;;;;;;;26.88;34.81;100436.63;5059116;28;766;-29
2021/05/28 00:30:20;;;;;;;;;;;;;;;26.82;35.32;100427.44;5059144;28;891;-28
2021/05/28 00:32:45;;;;;;;;;;;;;;;26.86;35.09;100433.31;5058936;28;1963;-28
2021/05/28 00:35:10;;;;;;;;;;;;;;;26.86;35.35;100431.41;5057388;28;567;-27
2021/05/28 00:37:36;;;;;;;;;;;;;;;26.87;35.44;100430.41;5059351;28;823;-28
2021/05/28 00:40:01;;;;;;;;;;;;;;;26.84;35.59;100425.38;5059287;28;787;-27
2021/05/28 00:42:26;;;;;;;;;;;;;;;26.86;35.55;100420.63;5041292;28;753;-27
2021/05/28 00:44:52;;;;;;;;;;;;;;;26.90;35.62;100427.34;5059075;28;847;-27
2021/05/28 00:47:17;;;;;;;;;;;;;;;26.84;35.29;100422.66;5058694;28;956;-27
2021/05/28 00:49:42;;;;;;;;;;;;;;;26.86;35.22;100422.50;5058645;28;837;-28
2021/05/28 00:52:08;;;;;;;;;;;;;;;26.90;34.73;100418.41;5058781;28;1902;-28
2021/05/28 00:54:33;;;;;;;;;;;;;;;26.91;34.79;100417.34;5059084;28;804;-28
2021/05/28 00:56:58;;;;;;;;;;;;;;;26.85;34.79;100416.28;5058602;28;744;-28
2021/05/28 00:59:24;;;;;;;;;;;;;;;26.84;34.64;100425.38;5058881;28;748;-27
2021/05/28 01:01:49;;;;;;;;;;;;;;;26.86;34.97;100417.94;5058466;28;947;-28
2021/05/28 01:04:14;;;;;;;;;;;;;;;26.84;34.71;100408.38;5058479;28;842;-27
2021/05/28 01:06:39;;;;;;;;;;;;;;;26.86;34.77;100409.03;5058708;28;791;-27
2021/05/28 01:09:05;;;;;;;;;;;;;;;26.89;34.61;100411.34;5058739;28;886;-27
2021/05/28 01:11:30;;;;;;;;;;;;;;;26.85;34.81;100415.41;5058592;28;1093;-27
2021/05/28 01:13:56;;;;;;;;;;;;;;;26.83;34.71;100409.38;5057975;28;1910;-27
2021/05/28 01:16:21;;;;;;;;;;;;;;;26.80;34.36;100407.91;5058157;28;899;-27
2021/05/28 01:18:46;;;;;;;;;;;;;;;26.78;34.11;100394.59;5058167;28;1098;-28
2021/05/28 01:21:12;;;;;;;;;;;;;;;26.80;34.24;100404.34;5058195;28;823;-27
2021/05/28 01:23:37;;;;;;;;;;;;;;;26.82;34.28;100403.16;5058266;28;773;-27
2021/05/28 01:26:05;;;;;;;;;;;;;;;26.81;34.34;100398.78;5058072;28;736;-27
2021/05/28 01:28:31;;;;;;;;;;;;;;;26.73;34.27;100397.03;5058130;28;808;-27
2021/05/28 01:30:58;;;;;;;;;;;;;;;26.76;34.20;100398.50;5058166;28;834;-28
2021/05/28 01:33:24;;;;;;;;;;;;;;;26.70;34.51;100394.72;5057445;28;1917;-27
2021/05/28 01:35:49;;;;;;;;;;;;;;;26.75;34.65;100391.44;5058112;28;790;-27
2021/05/28 01:38:14;;;;;;;;;;;;;;;26.74;34.33;100396.00;5058027;28;784;-27
2021/05/28 01:40:39;;;;;;;;;;;;;;;26.68;34.52;100387.81;5058196;28;863;-28
2021/05/28 01:43:05;;;;;;;;;;;;;;;26.70;34.47;100385.78;5057635;28;815;-28
2021/05/28 01:45:30;;;;;;;;;;;;;;;26.74;34.50;100387.06;5057632;28;883;-27
2021/05/28 01:47:55;;;;;;;;;;;;;;;26.76;34.32;100385.00;5057533;28;1100;-28
2021/05/28 01:50:20;;;;;;;;;;;;;;;26.72;34.40;100381.88;5057458;28;812;-28
2021/05/28 01:52:46;;;;;;;;;;;;;;;26.72;34.21;100381.88;5057773;28;1910;-28
2021/05/28 01:55:12;;;;;;;;;;;;;;;26.74;34.12;100390.59;5057571;28;784;-28
2021/05/28 01:57:37;;;;;;;;;;;;;;;26.73;34.50;100385.38;5057353;28;736;-27
2021/05/28 02:00:06;;;;;;;;;;;;;;;26.70;34.41;100386.63;5057600;28;733;-27
2021/05/28 02:02:31;;;;;;;;;;;;;;;26.78;34.66;100385.66;5067734;28;1030;-28
2021/05/28 02:04:57;;;;;;;;;;;;;;;26.74;34.61;100378.97;5057253;28;795;-27
2021/05/28 02:07:22;;;;;;;;;;;;;;;26.70;34.70;100383.91;5057451;28;795;-28
2021/05/28 02:09:47;;;;;;;;;;;;;;;26.72;34.83;100381.88;5057577;28;811;-27
2021/05/28 02:12:12;;;;;;;;;;;;;;;26.71;34.76;100379.38;5056644;28;1905;-27
2021/05/28 02:14:38;;;;;;;;;;;;;;;26.68;34.76;100379.72;5057179;28;812;-28
2021/05/28 02:17:03;;;;;;;;;;;;;;;26.67;34.95;100383.44;5056665;28;1107;-29
2021/05/28 02:19:28;;;;;;;;;;;;;;;26.64;34.85;100388.19;5056778;28;719;-28
2021/05/28 02:21:54;;;;;;;;;;;;;;;26.67;34.79;100386.16;5057143;28;546;-27
2021/05/28 02:24:19;;;;;;;;;;;;;;;26.62;35.24;100382.19;5057271;28;760;-27
2021/05/28 02:26:45;;;;;;;;;;;;;;;26.58;35.33;100388.09;5056533;28;824;-27
2021/05/28 02:29:11;;;;;;;;;;;;;;;26.67;35.36;100388.84;5057364;28;727;-28
2021/05/28 02:31:37;;;;;;;;;;;;;;;26.66;35.21;100388.00;5056930;28;1015;-27
2021/05/28 02:34:02;;;;;;;;;;;;;;;26.59;35.32;100393.31;5056364;28;1914;-27
2021/05/28 02:36:27;;;;;;;;;;;;;;;26.61;35.20;100388.56;5056961;28;826;-27
2021/05/28 02:38:53;;;;;;;;;;;;;;;26.61;35.52;100388.56;5056946;28;1455;-27
2021/05/28 02:41:18;;;;;;;;;;;;;;;26.64;35.37;100390.06;5056903;28;771;-27
2021/05/28 02:43:43;;;;;;;;;;;;;;;26.63;35.36;100375.75;5057355;28;788;-27
2021/05/28 02:46:09;;;;;;;;;;;;;;;26.59;35.65;100379.00;5056808;28;764;-27
2021/05/28 02:48:34;;;;;;;;;;;;;;;26.58;35.57;100375.47;5055946;28;955;-28
2021/05/28 02:50:59;;;;;;;;;;;;;;;26.61;35.39;100372.38;5056882;28;768;-27
2021/05/28 02:53:26;;;;;;;;;;;;;;;26.59;35.54;100357.44;5056573;28;1963;-27
2021/05/28 02:55:52;;;;;;;;;;;;;;;26.67;35.00;100365.41;5056453;28;735;-27
2021/05/28 02:58:18;;;;;;;;;;;;;;;26.59;35.54;100360.13;5055958;28;809;-26
2021/05/28 03:00:43;;;;;;;;;;;;;;;26.59;35.56;100360.94;5056541;28;771;-28
2021/05/28 03:03:08;;;;;;;;;;;;;;;26.61;35.50;100364.28;5056039;28;959;-27
2021/05/28 03:05:34;;;;;;;;;;;;;;;26.70;35.09;100373.13;5056689;28;851;-27
2021/05/28 03:07:59;;;;;;;;;;;;;;;26.71;35.22;100366.69;5056390;28;791;-27
2021/05/28 03:10:24;;;;;;;;;;;;;;;26.67;35.06;100365.41;5055949;28;844;-27
2021/05/28 03:12:49;;;;;;;;;;;;;;;26.66;35.18;100371.81;5056729;28;1953;-27
2021/05/28 03:15:15;;;;;;;;;;;;;;;26.70;35.01;100375.81;5056326;28;731;-27
2021/05/28 03:17:45;;;;;;;;;;;;;;;26.71;35.09;100363.19;5055763;28;972;-27
2021/05/28 03:20:20;;;;;;;;;;;;;;;26.67;35.35;100375.34;5056402;28;815;-27
2021/05/28 03:22:45;;;;;;;;;;;;;;;26.67;35.31;100368.13;5056080;28;804;-27
2021/05/28 03:25:11;;;;;;;;;;;;;;;26.64;35.22;100360.41;5056119;28;824;-27
2021/05/28 03:27:36;;;;;;;;;;;;;;;26.64;35.51;100368.50;5056280;28;729;-27
2021/05/28 03:30:06;;;;;;;;;;;;;;;26.62;35.17;100367.84;5056693;28;796;-27
2021/05/28 03:32:31;;;;;;;;;;;;;;;26.62;35.56;100374.06;5055787;28;1914;-27
2021/05/28 03:34:57;;;;;;;;;;;;;;;26.62;35.29;100371.38;5056131;28;760;-28
2021/05/28 03:37:22;;;;;;;;;;;;;;;26.68;35.31;100375.16;5056609;28;816;-27
2021/05/28 03:39:47;;;;;;;;;;;;;;;26.70;35.37;100372.28;5055968;28;776;-27
2021/05/28 03:42:13;;;;;;;;;;;;;;;26.65;35.44;100375.56;5056138;28;775;-27
2021/05/28 03:44:38;;;;;;;;;;;;;;;26.68;35.83;100377.88;5056415;28;776;-27
2021/05/28 03:47:03;;;;;;;;;;;;;;;26.69;35.77;100379.56;5055432;28;1003;-26
2021/05/28 03:49:29;;;;;;;;;;;;;;;26.63;35.69;100374.91;5056175;28;816;-26
2021/05/28 03:51:54;;;;;;;;;;;;;;;26.43;36.38;100380.03;5056291;28;1906;-27
2021/05/28 03:54:20;;;;;;;;;;;;;;;26.30;36.36;100376.13;5056184;28;848;-25
2021/05/28 03:56:45;;;;;;;;;;;;;;;26.23;36.90;100370.63;5055533;28;858;-26
2021/05/28 03:59:11;;;;;;;;;;;;;;;26.09;37.21;100377.69;5056226;28;729;-26
2021/05/28 04:01:36;;;;;;;;;;;;;;;25.83;37.95;100365.50;5055789;28;1524;-27
2021/05/28 04:04:01;;;;;;;;;;;;;;;25.84;37.62;100363.66;5054329;28;938;-30
2021/05/28 04:06:27;;;;;;;;;;;;;;;25.86;37.66;100377.78;5056133;28;751;-28
2021/05/28 04:08:52;;;;;;;;;;;;;;;25.94;37.43;100376.84;5057705;28;748;-27
2021/05/28 04:11:18;;;;;;;;;;;;;;;25.95;37.60;100376.66;5059168;28;1018;-27
2021/05/28 04:13:43;;;;;;;;;;;;;;;25.93;37.55;100378.69;5059323;28;1965;-27
2021/05/28 04:16:08;;;;;;;;;;;;;;;25.88;37.92;100383.78;5059758;28;568;-28
2021/05/28 04:18:34;;;;;;;;;;;;;;;25.98;37.62;100372.75;5059024;28;967;-26
2021/05/28 04:20:59;;;;;;;;;;;;;;;26.01;37.73;100370.53;5060083;28;834;-27
2021/05/28 04:23:24;;;;;;;;;;;;;;;26.01;38.08;100378.63;5059633;28;784;-26
2021/05/28 04:25:49;;;;;;;;;;;;;;;26.15;37.79;100368.88;5059217;28;839;-27
2021/05/28 04:28:15;;;;;;;;;;;;;;;25.94;39.15;100369.63;5059838;28;750;-27
2021/05/28 04:30:40;;;;;;;;;;;;;;;26.05;38.40;100379.09;5059503;28;748;-27
2021/05/28 04:33:06;;;;;;;;;;;;;;;26.12;38.11;100373.78;5058416;28;1973;-27
2021/05/28 04:35:31;;;;;;;;;;;;;;;26.23;37.72;100370.63;5059521;28;1018;-26
2021/05/28 04:37:56;;;;;;;;;;;;;;;26.19;37.86;100363.09;5059145;28;727;-27
2021/05/28 04:40:21;;;;;;;;;;;;;;;26.19;37.93;100373.91;5059057;28;827;-27
2021/05/28 04:42:47;;;;;;;;;;;;;;;26.19;37.81;100372.03;5041153;28;1583;-28
2021/05/28 04:45:13;;;;;;;;;;;;;;;26.25;37.87;100368.59;5059168;28;852;-27
2021/05/28 04:47:38;;;;;;;;;;;;;;;26.27;38.04;100368.41;5058197;28;959;-28
2021/05/28 04:50:03;;;;;;;;;;;;;;;26.19;38.53;100371.19;5059201;28;910;-26
2021/05/28 04:52:28;;;;;;;;;;;;;;;26.03;38.64;100379.28;5058666;28;1968;-27
2021/05/28 04:54:54;;;;;;;;;;;;;;;26.03;38.59;100368.50;5058724;28;768;-28
2021/05/28 04:57:19;;;;;;;;;;;;;;;25.91;38.58;100367.25;5059268;28;820;-27
2021/05/28 04:59:44;;;;;;;;;;;;;;;26.00;38.47;100365.31;5058959;28;756;-27
2021/05/28 05:02:10;;;;;;;;;;;;;;;26.00;38.49;100365.31;5058049;28;1059;-26
2021/05/28 05:04:35;;;;;;;;;;;;;;;26.03;38.29;100359.56;5058977;28;775;-28
2021/05/28 05:07:00;;;;;;;;;;;;;;;26.00;38.42;100359.94;5058365;28;836;-28
2021/05/28 05:09:25;;;;;;;;;;;;;;;26.02;38.41;100361.44;5058531;28;772;-28
2021/05/28 05:11:51;;;;;;;;;;;;;;;25.99;38.24;100358.28;5058686;28;1910;-28
2021/05/28 05:14:16;;;;;;;;;;;;;;;26.07;38.36;100366.28;5058085;28;1112;-27
2021/05/28 05:16:41;;;;;;;;;;;;;;;26.18;38.78;100370.34;5057756;28;1023;-27
2021/05/28 05:19:07;;;;;;;;;;;;;;;26.27;38.13;100366.56;5058591;28;949;-29
2021/05/28 05:21:32;;;;;;;;;;;;;;;26.25;37.96;100354.28;5057368;28;715;-29
2021/05/28 05:23:57;;;;;;;;;;;;;;;26.24;38.11;100350.72;5058244;28;756;-29
2021/05/28 05:26:22;;;;;;;;;;;;;;;26.25;38.66;100357.81;5058652;28;794;-29
2021/05/28 05:28:48;;;;;;;;;;;;;;;26.35;38.51;100356.72;5058384;28;808;-29
2021/05/28 05:31:13;;;;;;;;;;;;;;;26.47;38.29;100365.16;5058502;28;784;-30
2021/05/28 05:33:38;;;;;;;;;;;;;;;26.45;38.28;100362.66;5057686;28;1910;-28
2021/05/28 05:36:04;;;;;;;;;;;;;;;26.58;37.99;100363.84;5057905;28;880;-28
2021/05/28 05:38:29;;;;;;;;;;;;;;;26.56;37.91;100365.91;5057064;28;798;-29
2021/05/28 05:40:54;;;;;;;;;;;;;;;26.55;37.80;100364.22;5058331;28;839;-28
2021/05/28 05:43:20;;;;;;;;;;;;;;;26.58;37.58;100370.06;5058035;28;772;-29
2021/05/28 05:45:45;;;;;;;;;;;;;;;26.52;37.94;100374.38;5058047;28;746;-29
2021/05/28 05:48:10;;;;;;;;;;;;;;;26.58;37.86;100364.69;5057204;28;963;-29
2021/05/28 05:50:35;;;;;;;;;;;;;;;26.60;37.61;100365.34;5040150;28;1480;-29
2021/05/28 05:53:01;;;;;;;;;;;;;;;26.67;37.53;100365.41;5057513;28;1905;-29
2021/05/28 05:55:26;;;;;;;;;;;;;;;26.69;37.34;100365.22;5057759;28;768;-28
2021/05/28 05:57:52;;;;;;;;;;;;;;;26.72;36.97;100371.06;5057692;28;768;-29
2021/05/28 06:00:17;;;;;;;;;;;;;;;26.70;37.33;100369.56;5057010;28;808;-29
2021/05/28 06:02:42;;;;;;;;;;;;;;;26.79;37.22;100371.16;5057120;28;1420;-29
2021/05/28 06:05:08;;;;;;;;;;;;;;;26.84;37.17;100366.00;5057776;28;804;-29
2021/05/28 06:07:33;;;;;;;;;;;;;;;26.92;36.84;100367.75;5057294;28;720;-29
2021/05/28 06:09:59;;;;;;;;;;;;;;;26.89;36.58;100370.84;5057309;28;836;-29
2021/05/28 06:12:24;;;;;;;;;;;;;;;26.85;37.29;100361.44;5057219;28;1913;-28
2021/05/28 06:14:49;;;;;;;;;;;;;;;27.00;36.33;100358.69;5057776;28;739;-29
2021/05/28 06:17:14;;;;;;;;;;;;;;;26.96;36.80;100350.16;5056185;28;960;-28
2021/05/28 06:19:40;;;;;;;;;;;;;;;27.24;36.41;100352.09;5057822;28;764;-29
2021/05/28 06:22:05;;;;;;;;;;;;;;;27.29;36.78;100348.84;5057463;28;752;-29
2021/05/28 06:24:30;;;;;;;;;;;;;;;27.38;36.39;100354.94;5056769;28;856;-30
2021/05/28 06:26:56;;;;;;;;;;;;;;;27.33;36.54;100360.06;5057260;28;724;-30
2021/05/28 06:29:21;;;;;;;;;;;;;;;27.38;36.27;100353.06;5057567;28;815;-30
2021/05/28 06:31:46;;;;;;;;;;;;;;;27.42;36.19;100350.81;5056312;28;956;-30
2021/05/28 06:34:12;;;;;;;;;;;;;;;27.47;35.65;100347.53;5057100;28;1918;-30
2021/05/28 06:36:37;;;;;;;;;;;;;;;27.42;35.36;100347.28;5056887;28;764;-30
2021/05/28 06:39:03;;;;;;;;;;;;;;;27.49;35.27;100343.59;5056661;28;767;-30
2021/05/28 06:41:28;;;;;;;;;;;;;;;27.58;35.43;100348.84;5057064;28;758;-29
2021/05/28 06:43:54;;;;;;;;;;;;;;;27.55;35.52;100339.28;5056978;28;748;-30
2021/05/28 06:46:19;;;;;;;;;;;;;;;27.55;35.04;100339.28;5056001;28;840;-29
2021/05/28 06:48:44;;;;;;;;;;;;;;;27.64;34.87;100339.97;5056668;28;999;-29
2021/05/28 06:51:09;;;;;;;;;;;;;;;27.60;35.38;100333.28;5056720;28;748;-29
2021/05/28 06:53:35;;;;;;;;;;;;;;;27.61;35.01;100335.78;5056445;28;1901;-29
2021/05/28 06:56:00;;;;;;;;;;;;;;;27.73;34.84;100336.13;5056847;28;717;-29
2021/05/28 06:58:26;;;;;;;;;;;;;;;27.68;34.63;100335.88;5056532;28;733;-29
2021/05/28 07:00:51;;;;;;;;;;;;;;;27.71;34.58;100337.38;5055975;28;813;-29
2021/05/28 07:03:16;;;;;;;;;;;;;;;27.82;34.44;100338.66;5056496;28;967;-29
2021/05/28 07:05:41;;;;;;;;;;;;;;;27.78;34.41;100326.59;5056253;28;860;-29
2021/05/28 07:08:07;;;;;;;;;;;;;;;27.72;34.44;100330.91;5056194;28;792;-29
2021/05/28 07:10:33;;;;;;;;;;;;;;;27.84;34.22;100332.03;5056489;28;878;-29
2021/05/28 07:12:58;;;;;;;;;;;;;;;27.82;34.31;100330.56;5055830;28;1906;-29
2021/05/28 07:15:23;;;;;;;;;;;;;;;27.87;34.21;100320.84;5056361;28;875;-29
2021/05/28 07:17:48;;;;;;;;;;;;;;;28.02;34.10;100321.72;5056137;28;975;-29
2021/05/28 07:20:14;;;;;;;;;;;;;;;28.05;33.64;100324.03;5056298;28;860;-29
2021/05/28 07:22:39;;;;;;;;;;;;;;;28.09;33.75;100320.72;5056138;28;841;-29
2021/05/28 07:25:05;;;;;;;;;;;;;;;28.04;33.70;100320.50;5056531;28;772;-29
2021/05/28 07:27:30;;;;;;;;;;;;;;;28.11;32.88;100318.66;5056259;28;737;-29
2021/05/28 07:29:55;;;;;;;;;;;;;;;28.04;32.44;100320.50;5037323;28;787;-29
2021/05/28 07:32:21;;;;;;;;;;;;;;;28.22;32.83;100311.88;5056039;28;1976;-29
2021/05/28 07:34:46;;;;;;;;;;;;;;;28.23;32.96;100308.09;5038120;28;773;-29
2021/05/28 07:37:11;;;;;;;;;;;;;;;28.25;32.84;100307.91;5055950;28;819;-29
2021/05/28 07:39:37;;;;;;;;;;;;;;;28.29;32.61;100309.19;5056462;28;744;-29
2021/05/28 07:42:05;;;;;;;;;;;;;;;28.26;32.60;100306.84;5056152;28;759;-29
2021/05/28 07:44:30;;;;;;;;;;;;;;;28.01;33.48;100309.25;5058987;28;843;-28
2021/05/28 07:46:56;;;;;;;;;;;;;;;28.00;32.56;100313.81;5059905;28;952;-28
2021/05/28 07:49:21;;;;;;;;;;;;;;;28.24;32.77;100309.75;5060061;28;756;-29
2021/05/28 07:51:46;;;;;;;;;;;;;;;27.84;31.51;100310.41;5059957;28;763;-29
2021/05/28 07:54:12;;;;;;;;;;;;;;;28.01;32.12;100320.06;5059704;28;1949;-29
2021/05/28 07:56:37;;;;;;;;;;;;;;;28.10;31.82;100308.88;5059903;28;886;-29
2021/05/28 07:59:03;;;;;;;;;;;;;;;28.15;31.88;100310.97;5060377;28;803;-30
2021/05/28 08:01:28;;;;;;;;;;;;;;;28.22;31.84;100303.75;5059743;28;824;-30
2021/05/28 08:03:54;;;;;;;;;;;;;;;28.29;32.32;100305.63;5059720;28;995;-29
2021/05/28 08:06:19;;;;;;;;;;;;;;;28.28;32.09;100304.78;5059197;28;855;-29
2021/05/28 08:08:45;;;;;;;;;;;;;;;28.23;31.54;100293.75;5060435;28;812;-29
2021/05/28 08:11:10;;;;;;;;;;;;;;;28.44;30.95;100303.66;5059579;28;882;-28
2021/05/28 08:13:36;;;;;;;;;;;;;;;28.52;30.97;100299.09;5058946;28;1946;-29
2021/05/28 08:16:01;;;;;;;;;;;;;;;28.54;30.92;100302.44;5059664;28;768;-29
2021/05/28 08:18:27;;;;;;;;;;;;;;;28.66;31.41;100299.97;5059335;28;979;-29
2021/05/28 08:20:52;;;;;;;;;;;;;;;28.55;31.89;100295.97;5059243;28;859;-29
2021/05/28 08:23:18;;;;;;;;;;;;;;;28.58;31.81;100287.44;5060095;28;762;-29
2021/05/28 08:25:43;;;;;;;;;;;;;;;28.44;31.23;100287.44;5059519;28;827;-29
2021/05/28 08:28:08;;;;;;;;;;;;;;;28.55;31.21;100288.69;5059349;28;745;-30
2021/05/28 08:30:34;;;;;;;;;;;;;;;28.54;29.41;100284.31;5059475;28;779;-29
2021/05/28 08:32:59;;;;;;;;;;;;;;;28.58;29.92;100277.44;5058987;28;1956;-30
2021/05/28 08:35:24;;;;;;;;;;;;;;;28.71;30.79;100284.75;5059141;28;797;-29
2021/05/28 08:37:49;;;;;;;;;;;;;;;28.51;31.36;100278.50;5058829;28;764;-29
2021/05/28 08:40:16;;;;;;;;;;;;;;;28.56;31.27;100279.53;5059164;28;879;-30
2021/05/28 08:42:42;;;;;;;;;;;;;;;28.69;31.01;100276.03;5059383;28;827;-29
2021/05/28 08:45:07;;;;;;;;;;;;;;;28.70;30.89;100285.81;5058669;28;807;-29
2021/05/28 08:47:33;;;;;;;;;;;;;;;28.64;29.24;100280.38;5058787;28;992;-30
2021/05/28 08:50:00;;;;;;;;;;;;;;;28.30;28.66;100291.91;5059152;28;751;-28
2021/05/28 08:52:25;;;;;;;;;;;;;;;27.91;29.10;100269.88;5058042;28;1959;-28
2021/05/28 08:54:51;;;;;;;;;;;;;;;28.05;29.10;100273.50;5057996;28;819;-28
2021/05/28 08:57:18;;;;;;;;;;;;;;;28.21;29.06;100272.31;5058455;28;867;-28
2021/05/28 08:59:43;;;;;;;;;;;;;;;28.26;28.37;100268.19;5058487;28;853;-28
2021/05/28 09:02:27;;;;;;;;;;;;;;;28.64;28.51;100272.25;5058499;28;1007;-29
2021/05/28 09:05:03;;;;;;;;;;;;;;;28.30;28.89;100272.13;5058897;28;748;-30
2021/05/28 09:07:28;;;;;;;;;;;;;;;28.22;28.72;100276.69;5058373;28;839;-29
2021/05/28 09:09:53;;;;;;;;;;;;;;;27.95;29.15;100271.16;5058853;28;845;-28
2021/05/28 09:12:24;;;;;;;;;;;;;;;28.22;28.81;100262.34;5058331;28;1957;-29
2021/05/28 09:14:49;;;;;;;;;;;;;;;28.27;29.20;100264.44;5058229;28;851;-29
2021/05/28 09:17:15;;;;;;;;;;;;;;;28.56;27.39;100273.28;5040294;28;1074;-29
2021/05/28 09:19:40;;;;;;;;;;;;;;;28.22;27.69;100265.88;5058216;28;542;-28
2021/05/28 09:22:07;;;;;;;;;;;;;;;28.67;27.60;100267.28;5040523;28;822;-29
2021/05/28 09:24:35;;;;;;;;;;;;;;;29.04;27.31;100260.69;5058190;28;833;-28
2021/05/28 09:27:19;;;;;;;;;;;;;;;29.08;27.24;100262.75;5058265;28;741;-29
2021/05/28 09:29:57;;;;;;;;;;;;;;;28.71;27.47;100270.41;5057818;28;849;-28
2021/05/28 09:32:22;;;;;;;;;;;;;;;28.80;27.18;100255.63;5057863;28;1918;-29
2021/05/28 09:34:51;;;;;;;;;;;;;;;29.16;27.19;100259.00;5057665;28;851;-28
2021/05/28 09:37:16;;;;;;;;;;;;;;;29.13;27.47;100247.78;5057834;28;772;-28
2021/05/28 09:39:41;;;;;;;;;;;;;;;29.02;27.11;100241.09;5057944;28;875;-30
2021/05/28 09:42:07;;;;;;;;;;;;;;;28.94;27.10;100253.78;5040020;28;772;-30
2021/05/28 09:44:32;;;;;;;;;;;;;;;28.91;26.80;100253.38;5057829;28;851;-31
2021/05/28 09:47:00;;;;;;;;;;;;;;;29.26;27.45;100253.16;5057275;28;1019;-30
2021/05/28 09:49:32;;;;;;;;;;;;;;;29.10;25.93;100251.72;5057858;28;827;-29
2021/05/28 09:52:02;;;;;;;;;;;;;;;29.25;27.11;100256.91;5057719;28;760;-31
2021/05/28 09:54:27;;;;;;;;;;;;;;;29.28;26.98;100258.38;5057942;28;815;-30
2021/05/28 09:56:52;;;;;;;;;;;;;;;29.16;27.12;100248.16;5057952;28;839;-32
2021/05/28 09:59:18;;;;;;;;;;;;;;;29.32;26.56;100246.91;5057245;28;831;-29
2021/05/28 10:01:56;;;;;;;;;;;;;;;29.41;27.11;100249.41;5057473;28;924;-29
2021/05/28 10:04:21;;;;;;;;;;;;;;;29.28;26.69;100248.38;5057063;28;855;-29
2021/05/28 10:06:47;;;;;;;;;;;;;;;29.31;27.12;100250.66;5057354;28;740;-31
2021/05/28 10:09:12;;;;;;;;;;;;;;;29.36;26.88;100244.63;5040280;28;764;-31
2021/05/28 10:11:38;;;;;;;;;;;;;;;29.33;27.43;100242.31;5057363;28;1187;-30
2021/05/28 10:14:04;;;;;;;;;;;;;;;29.37;27.22;100246.28;5057018;28;1914;-30
2021/05/28 10:16:29;;;;;;;;;;;;;;;29.27;27.90;100244.00;5057111;28;785;-30
2021/05/28 10:18:55;;;;;;;;;;;;;;;29.20;27.10;100240.47;5057215;28;968;-30
2021/05/28 10:21:20;;;;;;;;;;;;;;;29.18;27.34;100240.66;5057059;28;880;-31
2021/05/28 10:23:46;;;;;;;;;;;;;;;29.28;27.24;100229.41;5057721;28;757;-30
2021/05/28 10:26:11;;;;;;;;;;;;;;;29.21;27.41;100234.81;5056895;28;776;-31
2021/05/28 10:28:37;;;;;;;;;;;;;;;29.32;27.55;100236.09;5056685;28;1102;-32
2021/05/28 10:31:02;;;;;;;;;;;;;;;29.27;27.30;100229.63;5072254;28;1519;-30
2021/05/28 10:33:28;;;;;;;;;;;;;;;29.26;27.88;100219.84;5056357;28;1973;-29
2021/05/28 10:35:57;;;;;;;;;;;;;;;29.21;27.30;100228.59;5056531;28;820;-31
2021/05/28 10:38:31;;;;;;;;;;;;;;;29.21;27.75;100228.59;5056948;28;815;-30
2021/05/28 10:41:00;;;;;;;;;;;;;;;29.27;27.62;100227.75;5056732;28;796;-29
2021/05/28 10:43:26;;;;;;;;;;;;;;;29.28;27.79;100218.56;5056357;28;829;-32
2021/05/28 10:46:04;;;;;;;;;;;;;;;29.40;27.58;100221.47;5056788;28;780;-31
2021/05/28 10:48:42;;;;;;;;;;;;;;;29.36;27.76;100222.94;5056454;28;1035;-30
2021/05/28 10:51:26;;;;;;;;;;;;;;;29.41;27.78;100214.19;5056564;28;1145;-30
2021/05/28 10:53:51;;;;;;;;;;;;;;;29.28;28.05;100209.63;5056760;28;1913;-30
2021/05/28 10:56:17;;;;;;;;;;;;;;;29.28;27.91;100215.84;5056357;28;738;-29
2021/05/28 10:58:45;;;;;;;;;;;;;;;29.30;27.54;100215.66;5056792;28;820;-31
2021/05/28 11:01:29;;;;;;;;;;;;;;;29.16;26.78;100204.84;5056373;28;828;-30
2021/05/28 11:03:55;;;;;;;;;;;;;;;29.28;27.84;100209.63;5055889;28;1015;-29
2021/05/28 11:06:20;;;;;;;;;;;;;;;29.28;27.97;100199.59;5071241;28;872;-31
2021/05/28 11:08:46;;;;;;;;;;;;;;;29.29;27.84;100205.88;5056738;28;831;-30
2021/05/28 11:11:30;;;;;;;;;;;;;;;29.20;28.38;100197.13;5056070;28;820;-31
2021/05/28 11:13:57;;;;;;;;;;;;;;;29.07;26.87;100201.53;5036336;28;1922;-32
2021/05/28 11:16:22;;;;;;;;;;;;;;;29.35;27.57;100194.19;5036273;28;1174;-31
2021/05/28 11:18:48;;;;;;;;;;;;;;;29.30;27.82;100188.56;5053717;28;1038;-31
2021/05/28 11:21:20;;;;;;;;;;;;;;;29.22;27.26;100192.34;5071829;28;1266;-32
2021/05/28 11:23:46;;;;;;;;;;;;;;;29.29;27.43;100192.31;5056597;28;770;-30
2021/05/28 11:26:15;;;;;;;;;;;;;;;29.18;27.44;100191.91;5055920;28;759;-32
2021/05/28 11:28:53;;;;;;;;;;;;;;;29.12;26.78;100186.50;5056479;28;742;-31
2021/05/28 11:31:19;;;;;;;;;;;;;;;29.33;27.31;100178.13;5056500;28;819;-31
2021/05/28 11:33:44;;;;;;;;;;;;;;;29.23;27.57;100180.44;5019818;28;1989;-31
2021/05/28 11:36:30;;;;;;;;;;;;;;;29.16;27.28;100183.16;5036282;28;811;-31
2021/05/28 11:39:19;;;;;;;;;;;;;;;29.31;27.20;100180.22;5028924;28;1963;-32
2021/05/28 11:41:48;;;;;;;;;;;;;;;29.23;26.88;100176.94;5030234;28;1901;-29
2021/05/28 11:44:14;;;;;;;;;;;;;;;29.28;27.54;100175.22;5036334;28;710;-32
2021/05/28 11:46:40;;;;;;;;;;;;;;;29.26;28.00;100173.78;5036722;28;871;-29
2021/05/28 11:49:06;;;;;;;;;;;;;;;29.34;27.58;100174.38;5055669;28;806;-29
2021/05/28 11:51:31;;;;;;;;;;;;;;;29.04;28.75;100165.91;5038424;28;1114;-29
2021/05/28 11:53:56;;;;;;;;;;;;;;;28.65;29.23;100171.09;5056157;28;1975;-29
2021/05/28 11:56:25;;;;;;;;;;;;;;;28.44;30.80;100176.50;5055617;28;851;-30
2021/05/28 11:58:51;;;;;;;;;;;;;;;28.24;30.55;100173.72;5055930;28;492;-31
2021/05/28 12:01:16;;;;;;;;;;;;;;;28.64;29.66;100162.16;5056147;28;756;-29
2021/05/28 12:03:41;;;;;;;;;;;;;;;28.79;29.36;100158.41;5055186;28;983;-31
2021/05/28 12:06:07;;;;;;;;;;;;;;;29.11;29.14;100168.59;5056640;28;800;-30
2021/05/28 12:08:34;;;;;;;;;;;;;;;29.24;28.84;100168.59;5056165;28;758;-30
2021/05/28 12:10:59;;;;;;;;;;;;;;;29.23;28.82;100153.34;5055735;28;748;-30
2021/05/28 12:13:28;;;;;;;;;;;;;;;29.05;30.08;100152.16;5055527;28;1922;-30
2021/05/28 12:16:00;;;;;;;;;;;;;;;28.92;29.78;100155.69;5055760;28;799;-30
2021/05/28 12:18:29;;;;;;;;;;;;;;;28.89;29.92;100149.84;5055402;28;1021;-29
2021/05/28 12:20:55;;;;;;;;;;;;;;;28.98;29.38;100151.31;5055972;28;742;-30
2021/05/28 12:23:20;;;;;;;;;;;;;;;28.90;29.87;100155.06;5055812;28;776;-30
2021/05/28 12:25:49;;;;;;;;;;;;;;;28.94;29.15;100148.19;5055564;28;823;-30
2021/05/28 12:28:14;;;;;;;;;;;;;;;28.98;28.92;100151.31;5055737;28;1434;-31
2021/05/28 12:30:40;;;;;;;;;;;;;;;29.07;28.81;100144.66;5058145;28;839;-27
2021/05/28 12:33:05;;;;;;;;;;;;;;;29.06;29.09;100137.56;5058374;28;1906;-29
2021/05/28 12:35:31;;;;;;;;;;;;;;;29.11;28.92;100136.94;5074385;28;835;-29
2021/05/28 12:38:03;;;;;;;;;;;;;;;28.89;28.71;100144.44;5074911;28;775;-28
2021/05/28 12:40:28;;;;;;;;;;;;;;;28.99;28.85;100146.75;5058644;28;816;-28
2021/05/28 12:42:54;;;;;;;;;;;;;;;28.99;28.83;100142.19;5059129;28;787;-28
2021/05/28 12:45:20;;;;;;;;;;;;;;;28.96;29.03;100154.22;5058992;28;547;-27
2021/05/28 12:47:45;;;;;;;;;;;;;;;29.03;29.24;100150.72;5058521;28;1355;-28
2021/05/28 12:50:26;;;;;;;;;;;;;;;29.08;28.69;100150.88;5058877;28;796;-28